createdAt,value
2019-04-16T00:00:53.461Z,34.12
2019-04-16T00:03:23.061Z,35.00
2019-04-16T00:05:58.931Z,35.93
2019-04-16T00:08:34.976Z,34.96
2019-04-16T00:11:13.048Z,35.99
2019-04-16T00:13:44.845Z,34.57
2019-04-16T00:16:13.883Z,34.71
2019-04-16T00:18:56.435Z,34.74
2019-04-16T00:21:31.123Z,33.91
2019-04-16T00:24:19.524Z,33.74
2019-04-16T00:26:50.480Z,35.84
2019-04-16T00:29:19.086Z,33.64
2019-04-16T00:31:51.688Z,33.72
2019-04-16T00:34:20.568Z,33.37
2019-04-16T00:36:49.481Z,36.03
2019-04-16T00:39:18.087Z,35.17
2019-04-16T00:41:46.707Z,35.23
2019-04-16T00:44:15.383Z,34.62
2019-04-16T00:46:44.223Z,34.65
2019-04-16T00:49:12.847Z,34.30
2019-04-16T00:51:41.468Z,34.22
2019-04-16T00:54:11.322Z,33.59
2019-04-16T00:56:40.364Z,33.90
2019-04-16T00:59:09.233Z,34.58
2019-04-16T01:01:38.077Z,34.15
2019-04-16T01:04:06.757Z,35.30
2019-04-16T01:06:37.899Z,33.90
2019-04-16T01:09:07.159Z,34.62
2019-04-16T01:11:36.060Z,34.93
2019-04-16T01:14:05.240Z,34.06
2019-04-16T01:16:33.852Z,34.82
2019-04-16T01:19:02.582Z,34.67
2019-04-16T01:21:31.440Z,34.30
2019-04-16T01:24:00.596Z,34.38
2019-04-16T01:26:29.468Z,33.36
2019-04-16T01:29:03.692Z,33.73
2019-04-16T01:32:00.548Z,34.20
2019-04-16T01:34:54.266Z,34.54
2019-04-16T01:37:31.512Z,34.28
2019-04-16T01:40:00.846Z,34.27
2019-04-16T01:42:29.626Z,34.06
2019-04-16T01:44:59.921Z,33.98
2019-04-16T01:47:28.863Z,34.19
2019-04-16T01:49:57.512Z,33.89
2019-04-16T01:52:26.457Z,33.93
2019-04-16T01:54:55.690Z,34.08
2019-04-16T01:57:24.334Z,34.57
2019-04-16T01:59:53.458Z,34.87
2019-04-16T02:02:22.124Z,35.20
2019-04-16T02:04:52.014Z,34.94
2019-04-16T02:07:21.120Z,35.67
2019-04-16T02:09:49.786Z,35.29
2019-04-16T02:12:18.384Z,36.05
2019-04-16T02:14:47.388Z,35.96
2019-04-16T02:17:17.350Z,36.20
2019-04-16T02:19:45.988Z,36.61
2019-04-16T02:22:14.628Z,35.89
2019-04-16T02:24:43.471Z,35.98
2019-04-16T02:27:12.180Z,36.32
2019-04-16T02:29:41.038Z,36.24
2019-04-16T02:32:09.835Z,36.47
2019-04-16T02:34:38.464Z,36.49
2019-04-16T02:37:08.130Z,37.46
2019-04-16T02:39:47.767Z,38.44
2019-04-16T02:42:08.188Z,37.06
2019-04-16T02:44:36.812Z,37.14
2019-04-16T02:47:07.246Z,37.24
2019-04-16T02:49:35.750Z,38.76
2019-04-16T02:52:16.477Z,39.37
2019-04-16T02:54:53.312Z,38.05
2019-04-16T02:57:36.575Z,37.72
2019-04-16T03:03:13.968Z,38.63
2019-04-16T03:05:45.868Z,39.37
2019-04-16T03:08:14.495Z,38.79
2019-04-16T03:10:44.615Z,38.85
2019-04-16T03:13:13.704Z,39.95
2019-04-16T03:16:02.819Z,39.97
2019-04-16T03:18:52.088Z,39.41
2019-04-16T03:21:20.720Z,40.80
2019-04-16T03:23:49.378Z,39.94
2019-04-16T03:26:18.312Z,39.74
2019-04-16T03:28:47.014Z,39.67
2019-04-16T03:31:22.473Z,39.82
2019-04-16T03:33:50.578Z,40.66
2019-04-16T03:36:16.651Z,41.33
2019-04-16T03:38:45.268Z,40.46
2019-04-16T03:41:14.165Z,41.06
2019-04-16T03:43:42.809Z,41.12
2019-04-16T03:46:12.995Z,41.24
2019-04-16T03:48:42.201Z,41.58
2019-04-16T03:51:11.044Z,40.79
2019-04-16T03:53:39.651Z,41.19
2019-04-16T03:56:08.806Z,40.65
2019-04-16T03:58:38.644Z,41.53
2019-04-16T04:01:08.007Z,42.00
2019-04-16T04:03:36.601Z,42.37
2019-04-16T04:06:06.896Z,41.32
2019-04-16T04:08:36.134Z,40.80
2019-04-16T04:11:09.168Z,41.60
2019-04-16T04:13:35.577Z,42.07
2019-04-16T04:16:04.324Z,41.74
2019-04-16T04:18:33.245Z,41.55
2019-04-16T04:21:01.855Z,42.05
2019-04-16T04:23:30.675Z,41.61
2019-04-16T04:25:59.295Z,41.34
2019-04-16T04:28:27.919Z,41.68
2019-04-16T04:30:57.672Z,42.14
2019-04-16T04:33:40.355Z,42.13
2019-04-16T04:36:08.037Z,42.19
2019-04-16T04:38:38.253Z,41.48
2019-04-16T04:41:07.849Z,41.92
2019-04-16T04:43:36.924Z,41.87
2019-04-16T04:46:05.812Z,42.22
2019-04-16T04:48:34.919Z,41.93
2019-04-16T04:51:08.259Z,43.02
2019-04-16T04:53:34.343Z,41.99
2019-04-16T04:56:03.185Z,42.35
2019-04-16T04:58:34.199Z,41.96
2019-04-16T05:01:02.591Z,41.93
2019-04-16T05:03:57.228Z,41.96
2019-04-16T05:06:29.531Z,41.65
2019-04-16T05:09:00.406Z,41.12
2019-04-16T05:11:28.782Z,41.62
2019-04-16T05:13:57.419Z,42.17
2019-04-16T05:16:26.302Z,40.87
2019-04-16T05:18:54.932Z,40.83
2019-04-16T05:21:23.561Z,41.21
2019-04-16T05:23:57.205Z,41.29
2019-04-16T05:26:23.111Z,40.86
2019-04-16T05:28:51.775Z,41.07
2019-04-16T05:31:24.670Z,41.98
2019-04-16T05:33:50.751Z,41.13
2019-04-16T05:36:21.333Z,41.41
2019-04-16T05:38:49.999Z,41.59
2019-04-16T05:41:21.979Z,40.25
2019-04-16T05:43:49.221Z,39.88
2019-04-16T05:46:17.833Z,38.79
2019-04-16T05:48:46.491Z,40.74
2019-04-16T05:51:15.102Z,39.90
2019-04-16T05:53:48.766Z,39.22
2019-04-16T05:56:24.979Z,39.39
2019-04-16T05:58:53.873Z,39.55
2019-04-16T06:01:29.437Z,38.67
2019-04-16T06:03:58.356Z,38.00
2019-04-16T06:06:31.193Z,39.18
2019-04-16T06:08:58.037Z,39.52
2019-04-16T06:11:32.570Z,39.68
2019-04-16T06:14:08.625Z,39.44
2019-04-16T06:16:42.820Z,38.58
2019-04-16T06:19:26.365Z,34.53
2019-04-16T06:22:04.996Z,32.36
2019-04-16T06:24:51.306Z,30.13
2019-04-16T06:27:28.086Z,26.50
2019-04-16T06:30:14.791Z,25.29
2019-04-16T06:32:54.939Z,24.31
2019-04-16T06:35:43.851Z,23.53
2019-04-16T06:38:16.256Z,22.65
2019-04-16T06:41:03.037Z,22.05
2019-04-16T06:43:31.814Z,21.83
2019-04-16T06:46:17.985Z,21.04
2019-04-16T06:49:14.279Z,21.47
2019-04-16T06:52:15.879Z,20.37
2019-04-16T06:55:12.286Z,21.07
2019-04-16T06:58:04.298Z,20.82
2019-04-16T07:00:55.293Z,20.53
2019-04-16T07:03:32.757Z,19.87
2019-04-16T07:06:20.528Z,20.94
2019-04-16T07:09:02.060Z,19.65
2019-04-16T07:11:31.130Z,20.90
2019-04-16T07:14:00.007Z,20.56
2019-04-16T07:16:29.148Z,19.55
2019-04-16T07:18:58.047Z,19.75
2019-04-16T07:21:26.672Z,18.73
2019-04-16T07:23:58.118Z,18.06
2019-04-16T07:26:26.282Z,17.39
2019-04-16T07:29:04.655Z,16.78
2019-04-16T07:31:40.014Z,16.71
2019-04-16T07:34:27.664Z,17.40
2019-04-16T07:37:32.827Z,16.40
2019-04-16T07:40:18.376Z,16.95
2019-04-16T07:42:59.437Z,16.16
2019-04-16T07:45:37.339Z,16.11
2019-04-16T07:48:14.017Z,15.32
2019-04-16T07:51:10.209Z,14.67
2019-04-16T07:54:13.302Z,15.06
2019-04-16T07:56:44.054Z,15.67
2019-04-16T07:59:12.869Z,16.34
2019-04-16T08:01:44.144Z,16.66
2019-04-16T08:04:12.014Z,15.44
2019-04-16T08:06:40.617Z,15.31
2019-04-16T08:09:09.432Z,15.51
2019-04-16T08:11:38.643Z,15.34
2019-04-16T08:14:09.833Z,15.75
2019-04-16T08:16:47.228Z,16.56
2019-04-16T08:19:08.590Z,16.37
2019-04-16T08:21:40.680Z,16.32
2019-04-16T08:24:15.628Z,16.70
2019-04-16T08:26:45.324Z,16.46
2019-04-16T08:29:14.139Z,17.05
2019-04-16T08:31:45.702Z,16.23
2019-04-16T08:34:14.350Z,16.39
2019-04-16T08:36:43.206Z,16.20
2019-04-16T08:39:13.969Z,17.04
2019-04-16T08:41:42.777Z,17.02
2019-04-16T08:44:11.622Z,16.80
2019-04-16T08:46:41.148Z,16.37
2019-04-16T08:49:09.919Z,14.81
2019-04-16T08:51:38.870Z,14.47
2019-04-16T08:54:08.533Z,14.32
2019-04-16T08:56:37.255Z,14.25
2019-04-16T08:59:09.708Z,14.98
2019-04-16T09:01:36.510Z,15.16
2019-04-16T09:04:05.214Z,15.97
2019-04-16T09:06:33.930Z,16.70
2019-04-16T09:09:24.365Z,17.04
2019-04-16T09:11:55.292Z,15.29
2019-04-16T09:14:25.684Z,13.86
2019-04-16T09:17:05.033Z,15.83
2019-04-16T09:19:34.287Z,14.69
2019-04-16T09:22:03.210Z,15.73
2019-04-16T09:24:40.518Z,14.21
2019-04-16T09:27:15.283Z,15.67
2019-04-16T09:30:01.794Z,14.59
2019-04-16T09:32:40.438Z,14.19
2019-04-16T09:35:30.362Z,14.27
2019-04-16T09:38:21.066Z,15.04
2019-04-16T09:41:10.323Z,15.28
2019-04-16T09:43:44.027Z,15.98
2019-04-16T09:46:21.203Z,17.24
2019-04-16T09:48:43.871Z,15.63
2019-04-16T09:51:18.749Z,14.49
2019-04-16T09:53:43.265Z,14.50
2019-04-16T09:56:29.987Z,14.72
2019-04-16T09:59:02.239Z,14.84
2019-04-16T10:01:51.720Z,14.43
2019-04-16T10:04:20.967Z,14.72
2019-04-16T10:06:49.706Z,14.36
2019-04-16T10:09:21.709Z,15.29
2019-04-16T10:11:48.983Z,15.89
2019-04-16T10:14:17.835Z,15.70
2019-04-16T10:16:46.546Z,14.37
2019-04-16T10:19:15.573Z,14.55
2019-04-16T10:21:44.225Z,15.78
2019-04-16T10:24:40.789Z,15.09
2019-04-16T10:27:12.862Z,14.74
2019-04-16T10:29:41.690Z,16.05
2019-04-16T10:32:10.317Z,15.58
2019-04-16T10:34:38.935Z,15.51
2019-04-16T10:37:08.041Z,14.59
2019-04-16T10:39:48.420Z,15.38
2019-04-16T10:42:25.701Z,14.72
2019-04-16T10:45:11.905Z,16.14
2019-04-16T10:47:59.740Z,16.06
2019-04-16T10:50:36.053Z,15.24
2019-04-16T10:53:21.928Z,15.44
2019-04-16T10:56:20.724Z,14.84
2019-04-16T10:59:04.023Z,14.29
2019-04-16T11:01:37.396Z,15.47
2019-04-16T11:04:14.667Z,14.84
2019-04-16T11:06:45.602Z,14.35
2019-04-16T11:09:14.913Z,14.48
2019-04-16T11:11:44.075Z,14.34
2019-04-16T11:14:12.903Z,14.41
2019-04-16T11:16:43.770Z,14.54
2019-04-16T11:19:12.441Z,15.33
2019-04-16T11:21:41.372Z,14.88
2019-04-16T11:24:10.234Z,14.75
2019-04-16T11:26:39.007Z,13.93
2019-04-16T11:29:07.918Z,14.52
2019-04-16T11:31:37.063Z,15.38
2019-04-16T11:34:07.760Z,16.34
2019-04-16T11:36:36.993Z,15.25
2019-04-16T11:39:07.398Z,14.71
2019-04-16T11:41:36.174Z,15.01
2019-04-16T11:44:15.136Z,16.56
2019-04-16T11:46:35.776Z,16.63
2019-04-16T11:49:04.580Z,15.23
2019-04-16T11:51:33.583Z,14.85
2019-04-16T11:54:02.440Z,16.02
2019-04-16T11:56:31.121Z,16.04
2019-04-16T11:58:59.761Z,16.89
2019-04-16T12:01:38.254Z,16.54
2019-04-16T12:04:22.234Z,16.40
2019-04-16T12:07:06.427Z,18.83
2019-04-16T12:09:50.259Z,18.20
2019-04-16T12:12:26.201Z,19.65
2019-04-16T12:15:13.928Z,19.44
2019-04-16T12:17:57.187Z,19.69
2019-04-16T12:20:46.983Z,19.09
2019-04-16T12:23:34.611Z,19.21
2019-04-16T12:26:22.841Z,18.66
2019-04-16T12:29:09.125Z,17.43
2019-04-16T12:31:55.611Z,18.62
2019-04-16T12:34:43.491Z,18.44
2019-04-16T12:37:22.174Z,18.38
2019-04-16T12:40:19.006Z,20.31
2019-04-16T12:42:58.653Z,19.54
2019-04-16T12:45:53.536Z,20.38
2019-04-16T12:48:48.229Z,19.75
2019-04-16T12:51:40.710Z,19.64
2019-04-16T12:54:13.440Z,21.12
2019-04-16T12:56:54.052Z,21.23
2019-04-16T12:59:31.727Z,19.34
2019-04-16T13:02:28.829Z,20.07
2019-04-16T13:05:11.732Z,21.04
2019-04-16T13:07:57.882Z,21.70
2019-04-16T13:10:33.284Z,22.07
2019-04-16T13:13:21.881Z,21.39
2019-04-16T13:16:10.518Z,20.14
2019-04-16T13:19:10.188Z,20.93
2019-04-16T13:21:45.138Z,22.58
2019-04-16T13:24:19.914Z,21.63
2019-04-16T13:26:56.773Z,21.58
2019-04-16T13:29:29.571Z,21.24
2019-04-16T13:31:57.006Z,20.70
2019-04-16T13:34:25.623Z,19.61
2019-04-16T13:36:59.251Z,21.29
2019-04-16T13:40:01.719Z,21.71
2019-04-16T13:42:30.419Z,21.02
2019-04-16T13:45:16.249Z,20.55
2019-04-16T13:47:45.325Z,20.73
2019-04-16T13:50:19.258Z,20.88
2019-04-16T13:52:52.008Z,20.88
2019-04-16T13:55:30.660Z,20.89
2019-04-16T13:58:02.781Z,20.44
2019-04-16T14:00:39.374Z,20.30
2019-04-16T14:03:13.555Z,19.84
2019-04-16T14:05:42.806Z,20.65
2019-04-16T14:08:11.549Z,19.58
2019-04-16T14:10:43.212Z,20.24
2019-04-16T14:13:13.458Z,20.28
2019-04-16T14:15:44.598Z,19.67
2019-04-16T14:18:11.941Z,20.63
2019-04-16T14:20:40.675Z,20.50
2019-04-16T14:23:09.385Z,19.43
2019-04-16T14:25:38.061Z,21.14
2019-04-16T14:28:06.697Z,21.84
2019-04-16T14:30:42.631Z,21.40
2019-04-16T14:33:12.998Z,20.13
2019-04-16T14:35:41.812Z,20.76
2019-04-16T14:38:11.052Z,21.27
2019-04-16T14:40:42.367Z,20.10
2019-04-16T14:43:11.114Z,20.05
2019-04-16T14:45:56.765Z,20.60
2019-04-16T14:48:13.263Z,19.98
2019-04-16T14:50:41.977Z,20.09
2019-04-16T14:53:13.705Z,19.99
2019-04-16T14:55:59.924Z,19.93
2019-04-16T14:58:52.926Z,19.37
2019-04-16T15:01:29.497Z,20.87
2019-04-16T15:04:11.189Z,22.09
2019-04-16T15:06:49.157Z,21.49
2019-04-16T15:09:30.683Z,21.03
2019-04-16T15:12:16.919Z,21.79
2019-04-16T15:15:11.759Z,21.28
2019-04-16T15:17:48.616Z,19.82
2019-04-16T15:20:40.589Z,19.72
2019-04-16T15:23:20.805Z,20.73
2019-04-16T15:26:08.128Z,20.46
2019-04-16T15:28:58.846Z,20.56
2019-04-16T15:31:41.999Z,20.94
2019-04-16T15:34:22.468Z,21.05
2019-04-16T15:36:56.617Z,21.51
2019-04-16T15:39:35.295Z,20.40
2019-04-16T15:42:20.480Z,20.60
2019-04-16T15:45:02.576Z,21.96
2019-04-16T15:47:48.728Z,21.36
2019-04-16T15:50:35.173Z,20.85
2019-04-16T15:53:10.697Z,20.97
2019-04-16T15:55:48.393Z,21.00
2019-04-16T15:58:32.313Z,20.85
2019-04-16T16:01:22.720Z,20.71
2019-04-16T16:04:10.698Z,20.69
2019-04-16T16:06:52.121Z,21.53
2019-04-16T16:09:41.078Z,22.20
2019-04-16T16:12:11.008Z,20.89
2019-04-16T16:14:39.898Z,20.48
2019-04-16T16:17:08.767Z,20.07
2019-04-16T16:19:37.390Z,19.83
2019-04-16T16:22:10.791Z,20.30
2019-04-16T16:24:41.939Z,20.37
2019-04-16T16:27:07.134Z,20.01
2019-04-16T16:29:35.757Z,20.91
2019-04-16T16:32:05.236Z,22.59
2019-04-16T16:34:33.890Z,22.46
2019-04-16T16:37:02.776Z,23.62
2019-04-16T16:39:31.490Z,22.69
2019-04-16T16:42:00.149Z,23.29
2019-04-16T16:44:28.874Z,23.60
2019-04-16T16:47:31.460Z,22.73
2019-04-16T16:50:00.240Z,22.82
2019-04-16T16:53:06.204Z,23.65
2019-04-16T16:55:49.296Z,22.84
2019-04-16T16:58:42.921Z,22.41
2019-04-16T17:01:34.945Z,22.64
2019-04-16T17:04:32.284Z,24.32
2019-04-16T17:07:00.988Z,24.49
2019-04-16T17:09:31.397Z,24.34
2019-04-16T17:12:00.097Z,24.20
2019-04-16T17:14:28.700Z,24.53
2019-04-16T17:17:12.182Z,25.35
2019-04-16T17:19:28.082Z,24.57
2019-04-16T17:21:56.804Z,24.28
2019-04-16T17:24:25.483Z,25.17
2019-04-16T17:26:54.175Z,24.20
2019-04-16T17:29:23.113Z,24.37
2019-04-16T17:31:52.342Z,24.51
2019-04-16T17:34:21.042Z,24.12
2019-04-16T17:36:50.137Z,24.67
2019-04-16T17:39:32.723Z,24.04
2019-04-16T17:42:05.618Z,25.36
2019-04-16T17:44:58.618Z,25.04
2019-04-16T17:47:49.419Z,24.88
2019-04-16T17:50:39.290Z,25.95
2019-04-16T17:53:15.734Z,24.88
2019-04-16T17:55:49.278Z,25.12
2019-04-16T17:58:27.347Z,26.89
2019-04-16T18:01:12.748Z,26.46
2019-04-16T18:04:03.008Z,26.35
2019-04-16T18:06:44.269Z,25.79
2019-04-16T18:09:29.462Z,26.96
2019-04-16T18:12:16.962Z,26.18
2019-04-16T18:15:01.083Z,28.32
2019-04-16T18:17:56.283Z,27.72
2019-04-16T18:20:38.493Z,26.34
2019-04-16T18:23:27.792Z,27.85
2019-04-16T18:26:14.147Z,27.12
2019-04-16T18:28:53.610Z,28.72
2019-04-16T18:31:31.338Z,28.69
2019-04-16T18:34:21.931Z,28.73
2019-04-16T18:37:02.632Z,28.32
2019-04-16T18:39:37.498Z,29.70
2019-04-16T18:42:20.460Z,27.91
2019-04-16T18:45:17.274Z,28.08
2019-04-16T18:48:01.342Z,28.68
2019-04-16T18:50:27.648Z,27.54
2019-04-16T18:52:53.669Z,29.74
2019-04-16T18:55:22.293Z,30.36
2019-04-16T18:57:51.040Z,29.12
2019-04-16T19:00:32.160Z,29.31
2019-04-16T19:03:00.995Z,28.85
2019-04-16T19:05:29.693Z,28.91
2019-04-16T19:08:00.145Z,29.30
2019-04-16T19:10:28.818Z,28.13
2019-04-16T19:12:57.514Z,27.97
2019-04-16T19:15:26.293Z,27.60
2019-04-16T19:17:54.937Z,27.84
2019-04-16T19:20:23.791Z,28.51
2019-04-16T19:22:52.454Z,29.31
2019-04-16T19:25:21.178Z,28.35
2019-04-16T19:27:49.845Z,27.60
2019-04-16T19:30:18.463Z,28.61
2019-04-16T19:32:47.078Z,28.58
2019-04-16T19:35:18.982Z,29.11
2019-04-16T19:37:46.068Z,28.64
2019-04-16T19:40:16.106Z,28.98
2019-04-16T19:42:45.463Z,29.45
2019-04-16T19:45:14.195Z,29.10
2019-04-16T19:47:42.796Z,29.53
2019-04-16T19:50:11.464Z,29.50
2019-04-16T19:52:40.084Z,29.51
2019-04-16T19:55:12.059Z,30.51
2019-04-16T19:57:39.488Z,30.62
2019-04-16T20:00:08.438Z,30.04
2019-04-16T20:02:37.013Z,30.46
2019-04-16T20:05:06.372Z,30.19
2019-04-16T20:07:35.008Z,30.57
2019-04-16T20:10:04.149Z,31.18
2019-04-16T20:12:32.742Z,31.73
2019-04-16T20:15:01.353Z,31.28
2019-04-16T20:17:29.989Z,31.29
2019-04-16T20:19:59.449Z,30.67
2019-04-16T20:22:29.186Z,31.19
2019-04-16T20:24:58.399Z,31.96
2019-04-16T20:27:27.230Z,32.17
2019-04-16T20:29:56.259Z,32.14
2019-04-16T20:32:26.087Z,32.31
2019-04-16T20:34:55.038Z,32.26
2019-04-16T20:37:23.705Z,32.31
2019-04-16T20:39:52.398Z,32.74
2019-04-16T20:42:21.592Z,32.32
2019-04-16T20:44:51.021Z,31.14
2019-04-16T20:47:19.696Z,32.87
2019-04-16T20:49:49.185Z,32.17
2019-04-16T20:52:18.502Z,32.39
2019-04-16T20:54:50.922Z,32.10
2019-04-16T20:57:25.396Z,31.38
2019-04-16T20:59:50.625Z,32.41
2019-04-16T21:02:19.425Z,32.65
2019-04-16T21:04:48.267Z,32.31
2019-04-16T21:07:17.120Z,31.75
2019-04-16T21:09:45.748Z,31.46
2019-04-16T21:12:14.664Z,31.70
2019-04-16T21:14:43.276Z,31.36
2019-04-16T21:17:11.895Z,31.12
2019-04-16T21:19:47.912Z,31.47
2019-04-16T21:22:17.971Z,31.23
2019-04-16T21:24:46.776Z,32.11
2019-04-16T21:27:15.586Z,32.43
2019-04-16T21:29:44.618Z,31.35
2019-04-16T21:32:32.417Z,32.21
2019-04-16T21:35:06.606Z,31.59
2019-04-16T21:37:45.717Z,31.33
2019-04-16T21:40:14.773Z,32.08
2019-04-16T21:42:43.378Z,31.87
2019-04-16T21:45:13.712Z,32.30
2019-04-16T21:47:42.472Z,32.45
2019-04-16T21:50:16.299Z,33.38
2019-04-16T21:52:44.636Z,33.60
2019-04-16T21:55:13.321Z,33.79
2019-04-16T21:57:42.800Z,33.67
2019-04-16T22:00:32.138Z,33.57
2019-04-16T22:03:00.776Z,34.38
2019-04-16T22:05:29.503Z,34.38
2019-04-16T22:07:58.885Z,33.32
2019-04-16T22:10:27.470Z,33.32
2019-04-16T22:12:56.094Z,33.30
2019-04-16T22:15:25.357Z,32.84
2019-04-16T22:17:54.727Z,33.20
2019-04-16T22:20:23.367Z,34.83
2019-04-16T22:22:51.970Z,34.83
2019-04-16T22:25:23.776Z,34.58
2019-04-16T22:27:53.475Z,33.27
2019-04-16T22:30:22.607Z,33.27
2019-04-16T22:32:51.485Z,33.51
2019-04-16T22:35:20.113Z,33.31
2019-04-16T22:37:48.712Z,33.69
2019-04-16T22:40:27.456Z,34.91
2019-04-16T22:43:13.629Z,33.91
2019-04-16T22:45:53.386Z,34.62
2019-04-16T22:48:21.947Z,34.62
2019-04-16T22:50:50.737Z,34.14
2019-04-16T22:53:19.351Z,33.81
2019-04-16T22:55:48.020Z,33.78
2019-04-16T22:58:23.604Z,33.56
2019-04-16T23:00:53.172Z,33.56
2019-04-16T23:03:21.781Z,34.73
2019-04-16T23:05:50.474Z,34.64
2019-04-16T23:08:19.339Z,33.78
2019-04-16T23:10:50.541Z,34.21
2019-04-16T23:13:18.506Z,33.67
2019-04-16T23:15:47.151Z,33.50
2019-04-16T23:18:17.551Z,33.50
2019-04-16T23:20:46.080Z,34.21
2019-04-16T23:23:17.914Z,34.21
2019-04-16T23:25:45.007Z,35.31
2019-04-16T23:28:13.906Z,35.75
2019-04-16T23:30:42.990Z,33.88
2019-04-16T23:33:11.676Z,33.88
2019-04-16T23:35:44.434Z,35.57
2019-04-16T23:38:10.958Z,35.57
2019-04-16T23:40:40.860Z,34.53
2019-04-16T23:43:43.956Z,34.29
2019-04-16T23:46:39.005Z,35.17
2019-04-16T23:49:27.133Z,35.17
2019-04-16T23:52:04.420Z,35.42
2019-04-16T23:54:40.687Z,34.56
2019-04-16T23:57:21.613Z,34.26
